sensor_id;sensor_type;location;lat;lon;timestamp;temperature;humidity
2623;DHT22;1321;48.690;9.022;2024-03-07T00:01:26;8.40;99.90
2623;DHT22;1321;48.690;9.022;2024-03-07T00:03:54;8.50;99.90
2623;DHT22;1321;48.690;9.022;2024-03-07T00:06:22;8.50;99.90
2623;DHT22;1321;48.690;9.022;2024-03-07T00:08:52;8.40;99.90
2623;DHT22;1321;48.690;9.022;2024-03-07T00:11:22;8.50;99.90
2623;DHT22;1321;48.690;9.022;2024-03-07T00:13:50;8.40;58.00
2623;DHT22;1321;48.690;9.022;2024-03-07T00:16:18;8.40;99.90
2623;DHT22;1321;48.690;9.022;2024-03-07T00:18:47;8.40;99.90
2623;DHT22;1321;48.690;9.022;2024-03-07T00:21:15;8.40;99.90
2623;DHT22;1321;48.690;9.022;2024-03-07T00:23:44;8.40;99.90
2623;DHT22;1321;48.690;9.022;2024-03-07T00:26:13;8.40;99.90
2623;DHT22;1321;48.690;9.022;2024-03-07T00:28:42;8.30;99.90
2623;DHT22;1321;48.690;9.022;2024-03-07T00:31:10;8.30;99.90
2623;DHT22;1321;48.690;9.022;2024-03-07T00:33:38;8.30;99.90
2623;DHT22;1321;48.690;9.022;2024-03-07T00:36:26;8.40;99.90
2623;DHT22;1321;48.690;9.022;2024-03-07T00:38:55;8.30;99.90
2623;DHT22;1321;48.690;9.022;2024-03-07T00:41:24;8.30;93.20
2623;DHT22;1321;48.690;9.022;2024-03-07T00:43:53;8.40;4.80
2623;DHT22;1321;48.690;9.022;2024-03-07T00:46:21;8.20;1.00
2623;DHT22;1321;48.690;9.022;2024-03-07T00:48:49;8.20;1.00
2623;DHT22;1321;48.690;9.022;2024-03-07T00:51:17;8.20;1.00
2623;DHT22;1321;48.690;9.022;2024-03-07T00:53:46;8.20;1.00
2623;DHT22;1321;48.690;9.022;2024-03-07T00:56:15;8.20;1.00
2623;DHT22;1321;48.690;9.022;2024-03-07T00:58:45;8.20;1.00
2623;DHT22;1321;48.690;9.022;2024-03-07T01:01:14;8.10;99.90
2623;DHT22;1321;48.690;9.022;2024-03-07T01:03:42;8.10;99.90
2623;DHT22;1321;48.690;9.022;2024-03-07T01:06:11;8.10;99.90
2623;DHT22;1321;48.690;9.022;2024-03-07T01:08:40;8.10;99.90
2623;DHT22;1321;48.690;9.022;2024-03-07T01:11:08;8.10;99.90
2623;DHT22;1321;48.690;9.022;2024-03-07T01:13:39;8.10;99.90
2623;DHT22;1321;48.690;9.022;2024-03-07T01:16:09;8.00;99.90
2623;DHT22;1321;48.690;9.022;2024-03-07T01:18:37;8.00;99.90
2623;DHT22;1321;48.690;9.022;2024-03-07T01:21:06;8.00;99.90
2623;DHT22;1321;48.690;9.022;2024-03-07T01:23:35;8.00;99.90
2623;DHT22;1321;48.690;9.022;2024-03-07T01:26:03;7.90;99.90
2623;DHT22;1321;48.690;9.022;2024-03-07T01:28:31;7.90;99.90
2623;DHT22;1321;48.690;9.022;2024-03-07T01:31:00;7.90;99.90
2623;DHT22;1321;48.690;9.022;2024-03-07T01:33:29;7.90;99.90
2623;DHT22;1321;48.690;9.022;2024-03-07T01:35:57;7.90;99.90
2623;DHT22;1321;48.690;9.022;2024-03-07T01:38:26;7.80;99.90
2623;DHT22;1321;48.690;9.022;2024-03-07T01:40:54;7.80;99.90
2623;DHT22;1321;48.690;9.022;2024-03-07T01:43:22;7.80;99.90
2623;DHT22;1321;48.690;9.022;2024-03-07T01:45:54;7.80;88.90
2623;DHT22;1321;48.690;9.022;2024-03-07T01:48:26;7.70;14.10
2623;DHT22;1321;48.690;9.022;2024-03-07T01:50:57;7.60;10.40
2623;DHT22;1321;48.690;9.022;2024-03-07T01:53:26;7.50;1.00
2623;DHT22;1321;48.690;9.022;2024-03-07T01:55:55;7.50;14.80
2623;DHT22;1321;48.690;9.022;2024-03-07T01:58:24;7.50;10.60
2623;DHT22;1321;48.690;9.022;2024-03-07T02:00:53;7.40;1.00
2623;DHT22;1321;48.690;9.022;2024-03-07T02:03:21;7.40;2.30
2623;DHT22;1321;48.690;9.022;2024-03-07T02:05:49;7.40;1.00
2623;DHT22;1321;48.690;9.022;2024-03-07T02:08:20;7.40;1.00
2623;DHT22;1321;48.690;9.022;2024-03-07T02:10:48;7.40;1.00
2623;DHT22;1321;48.690;9.022;2024-03-07T02:13:17;7.30;1.00
2623;DHT22;1321;48.690;9.022;2024-03-07T02:15:45;7.20;1.00
2623;DHT22;1321;48.690;9.022;2024-03-07T02:18:13;7.20;1.00
2623;DHT22;1321;48.690;9.022;2024-03-07T02:20:44;7.20;1.00
2623;DHT22;1321;48.690;9.022;2024-03-07T02:23:13;7.10;1.00
2623;DHT22;1321;48.690;9.022;2024-03-07T02:25:41;7.10;1.00
2623;DHT22;1321;48.690;9.022;2024-03-07T02:28:10;7.10;1.00
2623;DHT22;1321;48.690;9.022;2024-03-07T02:30:38;7.10;1.00
2623;DHT22;1321;48.690;9.022;2024-03-07T02:33:06;7.00;1.00
2623;DHT22;1321;48.690;9.022;2024-03-07T02:35:34;6.90;1.00
2623;DHT22;1321;48.690;9.022;2024-03-07T02:38:04;6.80;1.00
2623;DHT22;1321;48.690;9.022;2024-03-07T02:40:33;6.70;1.00
2623;DHT22;1321;48.690;9.022;2024-03-07T02:43:01;6.70;1.00
2623;DHT22;1321;48.690;9.022;2024-03-07T02:45:31;6.70;1.00
2623;DHT22;1321;48.690;9.022;2024-03-07T02:48:00;6.70;1.00
2623;DHT22;1321;48.690;9.022;2024-03-07T02:50:28;6.70;1.00
2623;DHT22;1321;48.690;9.022;2024-03-07T02:52:57;6.70;1.00
2623;DHT22;1321;48.690;9.022;2024-03-07T02:55:26;6.60;1.00
2623;DHT22;1321;48.690;9.022;2024-03-07T02:57:54;6.60;1.00
2623;DHT22;1321;48.690;9.022;2024-03-07T03:00:25;6.60;1.00
2623;DHT22;1321;48.690;9.022;2024-03-07T03:02:56;6.60;1.00
2623;DHT22;1321;48.690;9.022;2024-03-07T03:05:25;6.60;1.00
2623;DHT22;1321;48.690;9.022;2024-03-07T03:07:53;6.60;1.00
2623;DHT22;1321;48.690;9.022;2024-03-07T03:10:23;6.70;1.00
2623;DHT22;1321;48.690;9.022;2024-03-07T03:12:56;6.70;1.00
2623;DHT22;1321;48.690;9.022;2024-03-07T03:15:27;6.60;1.00
2623;DHT22;1321;48.690;9.022;2024-03-07T03:17:56;6.70;1.00
2623;DHT22;1321;48.690;9.022;2024-03-07T03:20:27;6.70;1.00
2623;DHT22;1321;48.690;9.022;2024-03-07T03:23:02;6.70;1.00
2623;DHT22;1321;48.690;9.022;2024-03-07T03:25:46;6.60;1.00
2623;DHT22;1321;48.690;9.022;2024-03-07T03:28:18;6.60;1.00
2623;DHT22;1321;48.690;9.022;2024-03-07T03:30:49;6.60;1.00
2623;DHT22;1321;48.690;9.022;2024-03-07T03:33:17;6.50;1.00
2623;DHT22;1321;48.690;9.022;2024-03-07T03:35:46;6.50;1.00
2623;DHT22;1321;48.690;9.022;2024-03-07T03:38:14;6.50;1.00
2623;DHT22;1321;48.690;9.022;2024-03-07T03:40:45;6.50;1.00
2623;DHT22;1321;48.690;9.022;2024-03-07T03:43:13;6.40;1.00
2623;DHT22;1321;48.690;9.022;2024-03-07T03:45:43;6.40;1.00
2623;DHT22;1321;48.690;9.022;2024-03-07T03:48:12;6.40;1.00
2623;DHT22;1321;48.690;9.022;2024-03-07T03:50:40;6.40;1.00
2623;DHT22;1321;48.690;9.022;2024-03-07T03:53:08;6.30;1.00
2623;DHT22;1321;48.690;9.022;2024-03-07T03:55:37;6.30;1.00
2623;DHT22;1321;48.690;9.022;2024-03-07T03:58:05;6.20;1.00
2623;DHT22;1321;48.690;9.022;2024-03-07T04:00:33;6.20;1.00
2623;DHT22;1321;48.690;9.022;2024-03-07T04:03:03;6.20;1.00
2623;DHT22;1321;48.690;9.022;2024-03-07T04:05:31;6.10;1.00
2623;DHT22;1321;48.690;9.022;2024-03-07T04:08:18;6.10;1.00
2623;DHT22;1321;48.690;9.022;2024-03-07T04:10:47;6.10;1.00
2623;DHT22;1321;48.690;9.022;2024-03-07T04:13:15;6.20;1.00
2623;DHT22;1321;48.690;9.022;2024-03-07T04:15:44;6.10;1.00
2623;DHT22;1321;48.690;9.022;2024-03-07T04:18:13;6.10;1.00
2623;DHT22;1321;48.690;9.022;2024-03-07T04:20:42;6.10;1.00
2623;DHT22;1321;48.690;9.022;2024-03-07T04:23:11;6.00;1.00
2623;DHT22;1321;48.690;9.022;2024-03-07T04:25:39;6.00;1.00
2623;DHT22;1321;48.690;9.022;2024-03-07T04:28:08;6.10;1.00
2623;DHT22;1321;48.690;9.022;2024-03-07T04:30:37;6.10;1.00
2623;DHT22;1321;48.690;9.022;2024-03-07T04:33:05;6.10;1.00
2623;DHT22;1321;48.690;9.022;2024-03-07T04:35:35;6.00;1.00
2623;DHT22;1321;48.690;9.022;2024-03-07T04:38:03;6.00;1.00
2623;DHT22;1321;48.690;9.022;2024-03-07T04:40:36;6.00;1.00
2623;DHT22;1321;48.690;9.022;2024-03-07T04:43:06;6.00;1.00
2623;DHT22;1321;48.690;9.022;2024-03-07T04:45:34;6.00;1.00
2623;DHT22;1321;48.690;9.022;2024-03-07T04:48:03;5.90;1.00
2623;DHT22;1321;48.690;9.022;2024-03-07T04:50:32;5.90;1.00
2623;DHT22;1321;48.690;9.022;2024-03-07T04:53:02;5.90;1.00
2623;DHT22;1321;48.690;9.022;2024-03-07T04:55:30;5.80;1.00
2623;DHT22;1321;48.690;9.022;2024-03-07T04:57:58;5.90;1.00
2623;DHT22;1321;48.690;9.022;2024-03-07T05:00:27;5.90;1.00
2623;DHT22;1321;48.690;9.022;2024-03-07T05:02:56;5.80;1.00
2623;DHT22;1321;48.690;9.022;2024-03-07T05:05:24;5.80;1.00
2623;DHT22;1321;48.690;9.022;2024-03-07T05:07:53;5.90;1.00
2623;DHT22;1321;48.690;9.022;2024-03-07T05:10:24;5.90;1.00
2623;DHT22;1321;48.690;9.022;2024-03-07T05:12:55;5.90;1.00
2623;DHT22;1321;48.690;9.022;2024-03-07T05:15:25;5.90;1.00
2623;DHT22;1321;48.690;9.022;2024-03-07T05:17:53;5.80;1.00
2623;DHT22;1321;48.690;9.022;2024-03-07T05:20:23;5.80;1.00
2623;DHT22;1321;48.690;9.022;2024-03-07T05:22:54;5.80;1.00
2623;DHT22;1321;48.690;9.022;2024-03-07T05:25:24;5.80;1.00
2623;DHT22;1321;48.690;9.022;2024-03-07T05:27:53;5.80;1.00
2623;DHT22;1321;48.690;9.022;2024-03-07T05:30:21;5.80;1.00
2623;DHT22;1321;48.690;9.022;2024-03-07T05:32:51;5.70;1.00
2623;DHT22;1321;48.690;9.022;2024-03-07T05:35:20;5.80;1.00
2623;DHT22;1321;48.690;9.022;2024-03-07T05:37:49;5.70;1.00
2623;DHT22;1321;48.690;9.022;2024-03-07T05:40:19;5.70;1.00
2623;DHT22;1321;48.690;9.022;2024-03-07T05:42:48;5.70;1.00
2623;DHT22;1321;48.690;9.022;2024-03-07T05:45:16;5.80;1.00
2623;DHT22;1321;48.690;9.022;2024-03-07T05:47:46;5.80;1.00
2623;DHT22;1321;48.690;9.022;2024-03-07T05:50:16;5.80;1.00
2623;DHT22;1321;48.690;9.022;2024-03-07T05:52:45;5.80;1.00
2623;DHT22;1321;48.690;9.022;2024-03-07T05:55:15;5.80;1.00
2623;DHT22;1321;48.690;9.022;2024-03-07T05:57:47;5.80;1.00
2623;DHT22;1321;48.690;9.022;2024-03-07T06:00:16;5.80;1.00
2623;DHT22;1321;48.690;9.022;2024-03-07T06:02:55;5.80;1.00
2623;DHT22;1321;48.690;9.022;2024-03-07T06:05:23;5.70;1.00
2623;DHT22;1321;48.690;9.022;2024-03-07T06:07:51;5.70;1.00
2623;DHT22;1321;48.690;9.022;2024-03-07T06:10:20;5.70;1.00
2623;DHT22;1321;48.690;9.022;2024-03-07T06:12:52;5.70;1.00
2623;DHT22;1321;48.690;9.022;2024-03-07T06:15:23;5.60;1.00
2623;DHT22;1321;48.690;9.022;2024-03-07T06:17:52;5.60;1.00
2623;DHT22;1321;48.690;9.022;2024-03-07T06:20:21;5.60;1.00
2623;DHT22;1321;48.690;9.022;2024-03-07T06:22:52;5.60;1.00
2623;DHT22;1321;48.690;9.022;2024-03-07T06:25:20;5.60;1.00
2623;DHT22;1321;48.690;9.022;2024-03-07T06:28:02;5.60;1.00
2623;DHT22;1321;48.690;9.022;2024-03-07T06:30:36;5.60;1.00
2623;DHT22;1321;48.690;9.022;2024-03-07T06:33:06;5.60;1.00
2623;DHT22;1321;48.690;9.022;2024-03-07T06:35:35;5.60;1.00
2623;DHT22;1321;48.690;9.022;2024-03-07T06:38:04;5.60;1.00
2623;DHT22;1321;48.690;9.022;2024-03-07T06:40:33;5.60;1.00
2623;DHT22;1321;48.690;9.022;2024-03-07T06:43:03;5.60;1.00
2623;DHT22;1321;48.690;9.022;2024-03-07T06:45:33;5.60;1.00
2623;DHT22;1321;48.690;9.022;2024-03-07T06:48:03;5.70;1.00
2623;DHT22;1321;48.690;9.022;2024-03-07T06:50:34;5.70;1.00
2623;DHT22;1321;48.690;9.022;2024-03-07T06:53:05;5.70;1.00
2623;DHT22;1321;48.690;9.022;2024-03-07T06:55:35;5.70;1.00
2623;DHT22;1321;48.690;9.022;2024-03-07T06:58:05;5.70;1.00
2623;DHT22;1321;48.690;9.022;2024-03-07T07:00:34;5.80;1.00
2623;DHT22;1321;48.690;9.022;2024-03-07T07:03:05;5.80;1.00
2623;DHT22;1321;48.690;9.022;2024-03-07T07:05:34;5.90;1.00
2623;DHT22;1321;48.690;9.022;2024-03-07T07:08:03;5.90;1.00
2623;DHT22;1321;48.690;9.022;2024-03-07T07:10:34;5.90;1.00
2623;DHT22;1321;48.690;9.022;2024-03-07T07:13:04;5.90;1.00
2623;DHT22;1321;48.690;9.022;2024-03-07T07:15:33;6.00;1.00
2623;DHT22;1321;48.690;9.022;2024-03-07T07:18:04;6.00;1.00
2623;DHT22;1321;48.690;9.022;2024-03-07T07:20:34;6.10;1.00
2623;DHT22;1321;48.690;9.022;2024-03-07T07:23:03;6.00;1.00
2623;DHT22;1321;48.690;9.022;2024-03-07T07:25:31;6.10;1.00
2623;DHT22;1321;48.690;9.022;2024-03-07T07:28:00;6.10;1.00
2623;DHT22;1321;48.690;9.022;2024-03-07T07:30:33;6.10;1.00
2623;DHT22;1321;48.690;9.022;2024-03-07T07:33:04;6.10;1.00
2623;DHT22;1321;48.690;9.022;2024-03-07T07:35:32;6.10;1.00
2623;DHT22;1321;48.690;9.022;2024-03-07T07:38:02;6.20;1.00
2623;DHT22;1321;48.690;9.022;2024-03-07T07:40:30;6.30;1.00
2623;DHT22;1321;48.690;9.022;2024-03-07T07:43:01;6.30;1.00
2623;DHT22;1321;48.690;9.022;2024-03-07T07:45:29;6.30;1.00
2623;DHT22;1321;48.690;9.022;2024-03-07T07:48:01;6.30;1.00
2623;DHT22;1321;48.690;9.022;2024-03-07T07:50:29;6.30;1.00
2623;DHT22;1321;48.690;9.022;2024-03-07T07:53:00;6.30;1.00
2623;DHT22;1321;48.690;9.022;2024-03-07T07:55:28;6.40;1.00
2623;DHT22;1321;48.690;9.022;2024-03-07T07:57:58;6.50;1.00
2623;DHT22;1321;48.690;9.022;2024-03-07T08:00:28;6.40;99.90
2623;DHT22;1321;48.690;9.022;2024-03-07T08:02:59;6.60;1.00
2623;DHT22;1321;48.690;9.022;2024-03-07T08:05:33;6.70;99.90
2623;DHT22;1321;48.690;9.022;2024-03-07T08:08:04;7.00;99.90
2623;DHT22;1321;48.690;9.022;2024-03-07T08:10:35;7.20;99.90
2623;DHT22;1321;48.690;9.022;2024-03-07T08:13:04;7.30;99.90
2623;DHT22;1321;48.690;9.022;2024-03-07T08:15:35;7.30;99.90
2623;DHT22;1321;48.690;9.022;2024-03-07T08:18:03;7.40;99.90
2623;DHT22;1321;48.690;9.022;2024-03-07T08:20:37;7.40;99.90
2623;DHT22;1321;48.690;9.022;2024-03-07T08:23:07;7.40;99.90
2623;DHT22;1321;48.690;9.022;2024-03-07T08:25:36;7.40;99.90
2623;DHT22;1321;48.690;9.022;2024-03-07T08:28:06;7.30;99.90
2623;DHT22;1321;48.690;9.022;2024-03-07T08:30:35;7.30;99.90
2623;DHT22;1321;48.690;9.022;2024-03-07T08:33:04;7.30;99.90
2623;DHT22;1321;48.690;9.022;2024-03-07T08:35:33;7.30;99.90
2623;DHT22;1321;48.690;9.022;2024-03-07T08:38:04;7.20;99.90
2623;DHT22;1321;48.690;9.022;2024-03-07T08:40:32;7.10;99.90
2623;DHT22;1321;48.690;9.022;2024-03-07T08:43:02;7.00;99.90
2623;DHT22;1321;48.690;9.022;2024-03-07T08:45:31;7.00;99.90
2623;DHT22;1321;48.690;9.022;2024-03-07T08:48:02;7.00;99.90
2623;DHT22;1321;48.690;9.022;2024-03-07T08:50:32;7.00;99.90
2623;DHT22;1321;48.690;9.022;2024-03-07T08:53:04;6.90;99.90
2623;DHT22;1321;48.690;9.022;2024-03-07T08:55:32;7.00;99.90
2623;DHT22;1321;48.690;9.022;2024-03-07T08:58:03;7.00;99.90
2623;DHT22;1321;48.690;9.022;2024-03-07T09:00:34;7.00;99.90
2623;DHT22;1321;48.690;9.022;2024-03-07T09:03:06;7.10;99.90
2623;DHT22;1321;48.690;9.022;2024-03-07T09:05:38;7.10;99.90
2623;DHT22;1321;48.690;9.022;2024-03-07T09:08:09;7.10;99.90
2623;DHT22;1321;48.690;9.022;2024-03-07T09:10:37;7.10;99.90
2623;DHT22;1321;48.690;9.022;2024-03-07T09:13:08;7.10;99.90
2623;DHT22;1321;48.690;9.022;2024-03-07T09:15:38;7.10;99.90
2623;DHT22;1321;48.690;9.022;2024-03-07T09:18:06;7.00;99.90
2623;DHT22;1321;48.690;9.022;2024-03-07T09:20:35;7.10;99.90
2623;DHT22;1321;48.690;9.022;2024-03-07T09:23:05;7.10;99.90
2623;DHT22;1321;48.690;9.022;2024-03-07T09:25:34;7.00;99.90
2623;DHT22;1321;48.690;9.022;2024-03-07T09:28:03;7.00;99.90
2623;DHT22;1321;48.690;9.022;2024-03-07T09:30:33;7.10;99.90
2623;DHT22;1321;48.690;9.022;2024-03-07T09:33:05;7.10;99.90
2623;DHT22;1321;48.690;9.022;2024-03-07T09:35:38;7.10;99.90
2623;DHT22;1321;48.690;9.022;2024-03-07T09:38:06;7.10;99.90
2623;DHT22;1321;48.690;9.022;2024-03-07T09:40:35;7.20;99.90
2623;DHT22;1321;48.690;9.022;2024-03-07T09:43:04;7.20;99.90
2623;DHT22;1321;48.690;9.022;2024-03-07T09:45:34;7.10;99.90
2623;DHT22;1321;48.690;9.022;2024-03-07T09:48:05;7.10;99.90
2623;DHT22;1321;48.690;9.022;2024-03-07T09:50:36;7.20;99.90
2623;DHT22;1321;48.690;9.022;2024-03-07T09:53:05;7.10;99.90
2623;DHT22;1321;48.690;9.022;2024-03-07T09:55:34;7.20;99.90
2623;DHT22;1321;48.690;9.022;2024-03-07T09:58:05;7.30;99.90
2623;DHT22;1321;48.690;9.022;2024-03-07T10:00:37;7.30;99.90
2623;DHT22;1321;48.690;9.022;2024-03-07T10:03:09;7.30;99.90
2623;DHT22;1321;48.690;9.022;2024-03-07T10:05:41;7.30;99.90
2623;DHT22;1321;48.690;9.022;2024-03-07T10:08:09;7.20;99.90
2623;DHT22;1321;48.690;9.022;2024-03-07T10:10:40;7.10;99.90
2623;DHT22;1321;48.690;9.022;2024-03-07T10:13:08;7.10;99.90
2623;DHT22;1321;48.690;9.022;2024-03-07T10:15:36;7.00;99.90
2623;DHT22;1321;48.690;9.022;2024-03-07T10:18:07;7.10;99.90
2623;DHT22;1321;48.690;9.022;2024-03-07T10:20:37;7.20;99.90
2623;DHT22;1321;48.690;9.022;2024-03-07T10:23:07;7.20;99.90
2623;DHT22;1321;48.690;9.022;2024-03-07T10:25:37;7.30;1.00
2623;DHT22;1321;48.690;9.022;2024-03-07T10:28:09;7.50;1.00
2623;DHT22;1321;48.690;9.022;2024-03-07T10:30:41;7.50;99.90
2623;DHT22;1321;48.690;9.022;2024-03-07T10:33:11;7.50;99.90
2623;DHT22;1321;48.690;9.022;2024-03-07T10:35:41;7.50;99.90
2623;DHT22;1321;48.690;9.022;2024-03-07T10:38:09;7.60;99.90
2623;DHT22;1321;48.690;9.022;2024-03-07T10:40:41;7.60;99.90
2623;DHT22;1321;48.690;9.022;2024-03-07T10:43:12;7.60;99.90
2623;DHT22;1321;48.690;9.022;2024-03-07T10:45:44;7.60;99.90
2623;DHT22;1321;48.690;9.022;2024-03-07T10:48:17;7.70;99.90
2623;DHT22;1321;48.690;9.022;2024-03-07T10:50:58;7.70;99.90
2623;DHT22;1321;48.690;9.022;2024-03-07T10:53:39;7.60;99.90
2623;DHT22;1321;48.690;9.022;2024-03-07T10:56:25;7.50;99.90
2623;DHT22;1321;48.690;9.022;2024-03-07T10:59:16;7.20;99.90
2623;DHT22;1321;48.690;9.022;2024-03-07T11:01:49;7.50;99.90
2623;DHT22;1321;48.690;9.022;2024-03-07T11:04:22;7.60;99.90
2623;DHT22;1321;48.690;9.022;2024-03-07T11:06:51;7.50;99.90
2623;DHT22;1321;48.690;9.022;2024-03-07T11:09:21;7.70;99.90
2623;DHT22;1321;48.690;9.022;2024-03-07T11:11:56;7.80;99.90
2623;DHT22;1321;48.690;9.022;2024-03-07T11:14:28;7.80;99.90
2623;DHT22;1321;48.690;9.022;2024-03-07T11:16:58;7.70;99.90
2623;DHT22;1321;48.690;9.022;2024-03-07T11:19:28;7.90;99.90
2623;DHT22;1321;48.690;9.022;2024-03-07T11:21:58;8.00;99.90
2623;DHT22;1321;48.690;9.022;2024-03-07T11:24:28;8.40;99.90
2623;DHT22;1321;48.690;9.022;2024-03-07T11:27:03;9.80;99.90
2623;DHT22;1321;48.690;9.022;2024-03-07T11:29:46;11.20;99.90
2623;DHT22;1321;48.690;9.022;2024-03-07T11:32:15;9.90;99.90
2623;DHT22;1321;48.690;9.022;2024-03-07T11:34:44;9.40;99.90
2623;DHT22;1321;48.690;9.022;2024-03-07T11:37:17;9.10;99.90
2623;DHT22;1321;48.690;9.022;2024-03-07T11:39:50;8.70;99.90
2623;DHT22;1321;48.690;9.022;2024-03-07T11:42:24;8.60;99.90
2623;DHT22;1321;48.690;9.022;2024-03-07T11:44:55;8.20;99.90
2623;DHT22;1321;48.690;9.022;2024-03-07T11:47:25;8.10;99.90
2623;DHT22;1321;48.690;9.022;2024-03-07T11:49:56;8.80;99.90
2623;DHT22;1321;48.690;9.022;2024-03-07T11:52:25;8.50;99.90
2623;DHT22;1321;48.690;9.022;2024-03-07T11:54:55;8.90;99.90
2623;DHT22;1321;48.690;9.022;2024-03-07T11:57:32;9.00;99.90
2623;DHT22;1321;48.690;9.022;2024-03-07T12:00:02;8.80;99.90
2623;DHT22;1321;48.690;9.022;2024-03-07T12:02:37;8.80;99.90
2623;DHT22;1321;48.690;9.022;2024-03-07T12:05:07;8.80;99.90
2623;DHT22;1321;48.690;9.022;2024-03-07T12:07:36;8.80;99.90
2623;DHT22;1321;48.690;9.022;2024-03-07T12:10:06;8.70;99.90
2623;DHT22;1321;48.690;9.022;2024-03-07T12:12:34;8.70;99.90
2623;DHT22;1321;48.690;9.022;2024-03-07T12:15:08;8.70;99.90
2623;DHT22;1321;48.690;9.022;2024-03-07T12:17:47;8.40;99.90
2623;DHT22;1321;48.690;9.022;2024-03-07T12:20:17;8.20;99.90
2623;DHT22;1321;48.690;9.022;2024-03-07T12:22:59;8.40;99.90
2623;DHT22;1321;48.690;9.022;2024-03-07T12:25:29;8.10;99.90
2623;DHT22;1321;48.690;9.022;2024-03-07T12:28:02;8.20;99.90
2623;DHT22;1321;48.690;9.022;2024-03-07T12:30:35;8.30;99.90
2623;DHT22;1321;48.690;9.022;2024-03-07T12:33:06;8.20;99.90
2623;DHT22;1321;48.690;9.022;2024-03-07T12:35:36;8.30;99.90
2623;DHT22;1321;48.690;9.022;2024-03-07T12:38:04;8.30;99.90
2623;DHT22;1321;48.690;9.022;2024-03-07T12:40:32;8.30;99.90
2623;DHT22;1321;48.690;9.022;2024-03-07T12:43:13;8.30;99.90
2623;DHT22;1321;48.690;9.022;2024-03-07T12:45:45;8.40;99.90
2623;DHT22;1321;48.690;9.022;2024-03-07T12:48:13;8.50;99.90
2623;DHT22;1321;48.690;9.022;2024-03-07T12:50:41;8.40;99.90
2623;DHT22;1321;48.690;9.022;2024-03-07T12:53:09;8.40;99.90
2623;DHT22;1321;48.690;9.022;2024-03-07T12:55:39;8.40;99.90
2623;DHT22;1321;48.690;9.022;2024-03-07T12:58:09;8.50;99.90
2623;DHT22;1321;48.690;9.022;2024-03-07T13:00:38;8.50;99.90
2623;DHT22;1321;48.690;9.022;2024-03-07T13:03:10;8.40;99.90
2623;DHT22;1321;48.690;9.022;2024-03-07T13:05:40;8.50;99.90
2623;DHT22;1321;48.690;9.022;2024-03-07T13:08:11;8.50;99.90
2623;DHT22;1321;48.690;9.022;2024-03-07T13:10:39;8.50;99.90
2623;DHT22;1321;48.690;9.022;2024-03-07T13:13:08;8.70;99.90
2623;DHT22;1321;48.690;9.022;2024-03-07T13:15:38;8.70;99.90
2623;DHT22;1321;48.690;9.022;2024-03-07T13:18:06;8.80;99.90
2623;DHT22;1321;48.690;9.022;2024-03-07T13:20:37;8.80;99.90
2623;DHT22;1321;48.690;9.022;2024-03-07T13:23:05;8.80;99.90
2623;DHT22;1321;48.690;9.022;2024-03-07T13:25:34;8.80;99.90
2623;DHT22;1321;48.690;9.022;2024-03-07T13:28:06;8.80;99.90
2623;DHT22;1321;48.690;9.022;2024-03-07T13:30:35;8.80;99.90
2623;DHT22;1321;48.690;9.022;2024-03-07T13:33:04;8.60;99.90
2623;DHT22;1321;48.690;9.022;2024-03-07T13:35:32;8.60;99.90
2623;DHT22;1321;48.690;9.022;2024-03-07T13:38:02;8.80;99.90
2623;DHT22;1321;48.690;9.022;2024-03-07T13:40:31;8.90;99.90
2623;DHT22;1321;48.690;9.022;2024-03-07T13:43:01;9.00;99.90
2623;DHT22;1321;48.690;9.022;2024-03-07T13:45:31;9.00;99.90
2623;DHT22;1321;48.690;9.022;2024-03-07T13:48:01;8.90;99.90
2623;DHT22;1321;48.690;9.022;2024-03-07T13:50:34;9.00;99.90
2623;DHT22;1321;48.690;9.022;2024-03-07T13:53:23;9.00;99.90
2623;DHT22;1321;48.690;9.022;2024-03-07T13:56:40;9.10;99.90
2623;DHT22;1321;48.690;9.022;2024-03-07T13:59:44;9.10;99.90
2623;DHT22;1321;48.690;9.022;2024-03-07T14:02:47;9.00;99.90
2623;DHT22;1321;48.690;9.022;2024-03-07T14:05:57;9.00;99.90
2623;DHT22;1321;48.690;9.022;2024-03-07T14:12:04;9.00;99.90
2623;DHT22;1321;48.690;9.022;2024-03-07T14:18:24;9.10;99.90
2623;DHT22;1321;48.690;9.022;2024-03-07T14:24:27;9.10;99.90
2623;DHT22;1321;48.690;9.022;2024-03-07T14:27:21;9.10;99.90
2623;DHT22;1321;48.690;9.022;2024-03-07T14:30:07;9.00;99.90
2623;DHT22;1321;48.690;9.022;2024-03-07T14:32:39;9.10;99.90
2623;DHT22;1321;48.690;9.022;2024-03-07T14:35:21;9.00;99.90
2623;DHT22;1321;48.690;9.022;2024-03-07T14:37:53;9.00;99.90
2623;DHT22;1321;48.690;9.022;2024-03-07T14:40:22;9.00;99.90
2623;DHT22;1321;48.690;9.022;2024-03-07T14:42:56;9.00;99.90
2623;DHT22;1321;48.690;9.022;2024-03-07T14:45:31;9.00;99.90
2623;DHT22;1321;48.690;9.022;2024-03-07T14:48:00;9.00;99.90
2623;DHT22;1321;48.690;9.022;2024-03-07T14:50:29;9.00;99.90
2623;DHT22;1321;48.690;9.022;2024-03-07T14:53:00;9.00;99.90
2623;DHT22;1321;48.690;9.022;2024-03-07T14:55:28;9.00;99.90
2623;DHT22;1321;48.690;9.022;2024-03-07T14:57:58;9.00;99.90
2623;DHT22;1321;48.690;9.022;2024-03-07T15:00:27;9.00;99.90
2623;DHT22;1321;48.690;9.022;2024-03-07T15:03:08;9.00;99.90
2623;DHT22;1321;48.690;9.022;2024-03-07T15:05:37;9.00;99.90
2623;DHT22;1321;48.690;9.022;2024-03-07T15:08:06;9.00;99.90
2623;DHT22;1321;48.690;9.022;2024-03-07T15:10:36;8.90;99.90
2623;DHT22;1321;48.690;9.022;2024-03-07T15:13:05;9.00;99.90
2623;DHT22;1321;48.690;9.022;2024-03-07T15:15:34;9.00;99.90
2623;DHT22;1321;48.690;9.022;2024-03-07T15:18:03;9.00;99.90
2623;DHT22;1321;48.690;9.022;2024-03-07T15:20:32;9.00;99.90
2623;DHT22;1321;48.690;9.022;2024-03-07T15:23:00;9.00;99.90
2623;DHT22;1321;48.690;9.022;2024-03-07T15:25:29;9.00;99.90
2623;DHT22;1321;48.690;9.022;2024-03-07T15:27:58;9.10;99.90
2623;DHT22;1321;48.690;9.022;2024-03-07T15:30:28;9.00;99.90
2623;DHT22;1321;48.690;9.022;2024-03-07T15:32:59;9.00;99.90
2623;DHT22;1321;48.690;9.022;2024-03-07T15:35:28;9.00;99.90
2623;DHT22;1321;48.690;9.022;2024-03-07T15:37:57;9.00;99.90
2623;DHT22;1321;48.690;9.022;2024-03-07T15:40:26;8.90;99.90
2623;DHT22;1321;48.690;9.022;2024-03-07T15:42:56;9.00;99.90
2623;DHT22;1321;48.690;9.022;2024-03-07T15:45:25;9.00;99.90
2623;DHT22;1321;48.690;9.022;2024-03-07T15:47:57;9.00;99.90
2623;DHT22;1321;48.690;9.022;2024-03-07T15:50:27;8.90;99.90
2623;DHT22;1321;48.690;9.022;2024-03-07T15:52:57;8.90;99.90
2623;DHT22;1321;48.690;9.022;2024-03-07T15:55:27;8.90;99.90
2623;DHT22;1321;48.690;9.022;2024-03-07T15:57:58;9.00;99.90
2623;DHT22;1321;48.690;9.022;2024-03-07T16:00:31;9.00;99.90
2623;DHT22;1321;48.690;9.022;2024-03-07T16:03:04;8.90;99.90
2623;DHT22;1321;48.690;9.022;2024-03-07T16:05:36;8.90;99.90
2623;DHT22;1321;48.690;9.022;2024-03-07T16:08:06;8.90;99.90
2623;DHT22;1321;48.690;9.022;2024-03-07T16:10:36;8.90;99.90
2623;DHT22;1321;48.690;9.022;2024-03-07T16:13:07;8.90;99.90
2623;DHT22;1321;48.690;9.022;2024-03-07T16:15:37;8.90;99.90
2623;DHT22;1321;48.690;9.022;2024-03-07T16:18:10;8.90;99.90
2623;DHT22;1321;48.690;9.022;2024-03-07T16:20:39;8.90;99.90
2623;DHT22;1321;48.690;9.022;2024-03-07T16:23:09;8.80;99.90
2623;DHT22;1321;48.690;9.022;2024-03-07T16:25:38;8.80;99.90
2623;DHT22;1321;48.690;9.022;2024-03-07T16:28:07;8.80;99.90
2623;DHT22;1321;48.690;9.022;2024-03-07T16:30:38;8.70;99.90
2623;DHT22;1321;48.690;9.022;2024-03-07T16:33:13;8.70;99.90
2623;DHT22;1321;48.690;9.022;2024-03-07T16:35:45;8.70;99.90
2623;DHT22;1321;48.690;9.022;2024-03-07T16:38:13;8.70;99.90
2623;DHT22;1321;48.690;9.022;2024-03-07T16:40:43;8.60;99.90
2623;DHT22;1321;48.690;9.022;2024-03-07T16:43:12;8.50;99.90
2623;DHT22;1321;48.690;9.022;2024-03-07T16:45:41;8.40;99.90
2623;DHT22;1321;48.690;9.022;2024-03-07T16:48:10;8.50;99.90
2623;DHT22;1321;48.690;9.022;2024-03-07T16:50:40;8.50;99.90
2623;DHT22;1321;48.690;9.022;2024-03-07T16:53:11;8.50;99.90
2623;DHT22;1321;48.690;9.022;2024-03-07T16:55:43;8.50;99.90
2623;DHT22;1321;48.690;9.022;2024-03-07T16:58:15;8.50;99.90